Terminal Aerodrome Forecast
Issued by NWS

Home | Current Version | Previous Version | Text Only | Print | Product List | Glossary On
Versions: 1 2 3 4 5 6 7 8 9 10 11 12 13 14
000
FTUS45 KMSO 222300
TAFSMN
TAF
KSMN 222320Z 2300/2324 22012G20KT P6SM VCSH OVC100
     FM230300 VRB06KT P6SM -RA OVC050
     FM230900 VRB06KT 6SM -RA OVC030
      AMD LTD TO CLD VIS AND WIND=

USA.gov is the U.S. government's official web portal to all federal, state and local government web resources and services.